Asbury, Iowa
Current Conditions -  °F | °C
As of 10:53 PM on Monday 22 Dec 2014 (Local Time) from KDBQ Reporting Station
Haze Haze  
Wind Chill: 30°   Ceiling: 200
Heat Index: 37°   Visibility: 1.2mi
Dew Point: 37°   Wind: 9mph
Humidity: 100%   Direction: 70°ENE
Pressure: 29.51"   Gusts: NA
Location:  42.522°N, 90.7782°W
Report Text: KDBQ 230453Z AUTO 07008KT 1 1/4SM UP BR OVC002 03/03 A2951 RMK AO2 SLP001 P0002 T00280028
Loading
Personal Weather Stations






























Interactive Weather Map New forecast layout! Learn more

10-Day Weather Forecast

Advertisements
Track Severe Weather on mobile